Time;durP1;ratioP1;P1;durP2;ratioP2;P2;SDS_P1;SDS_P2;PMS_P1;PMS_P2;Temp;Humidity;BMP_temperature;BMP_pressure;BME280_temperature;BME280_humidity;BME280_pressure;Samples;Min_cycle;Max_cycle;Signal;HPM_P1;HPM_P2
2023/08/09 00:10:03;;;;;;;1.50;1.40;;;22.00;65.90;;;;;;5151825;27;20195;-70
2023/08/09 00:12:29;;;;;;;3.20;1.75;;;22.10;65.30;;;;;;5151695;27;20129;-70
2023/08/09 00:14:55;;;;;;;1.60;1.50;;;22.20;65.10;;;;;;5150187;27;20091;-70
2023/08/09 00:17:20;;;;;;;1.70;1.60;;;22.10;65.10;;;;;;5142582;27;20061;-70
2023/08/09 00:19:46;;;;;;;2.35;1.70;;;22.20;65.40;;;;;;5130934;28;20354;-70
2023/08/09 00:22:12;;;;;;;2.22;1.90;;;22.20;65.60;;;;;;5131015;27;20030;-70
2023/08/09 00:24:37;;;;;;;2.65;1.50;;;22.30;65.30;;;;;;5129630;28;20409;-69
2023/08/09 00:27:03;;;;;;;1.90;1.75;;;22.30;65.30;;;;;;5130542;28;20028;-70
2023/08/09 00:29:29;;;;;;;1.73;1.40;;;22.30;65.10;;;;;;5130339;28;20027;-70
2023/08/09 00:31:56;;;;;;;1.50;1.40;;;22.40;65.10;;;;;;5130469;28;20410;-69
2023/08/09 00:34:21;;;;;;;3.35;1.55;;;22.30;64.90;;;;;;5128843;28;20450;-70
2023/08/09 00:36:47;;;;;;;2.78;1.90;;;22.30;65.50;;;;;;5130985;28;20118;-69
2023/08/09 00:39:13;;;;;;;4.38;1.83;;;22.30;65.30;;;;;;5130581;28;20019;-70
2023/08/09 00:41:39;;;;;;;2.20;2.00;;;22.20;65.70;;;;;;5130218;28;20038;-69
2023/08/09 00:44:05;;;;;;;2.63;2.00;;;22.10;65.20;;;;;;5130720;28;20433;-69
2023/08/09 00:46:30;;;;;;;3.17;2.00;;;22.10;65.90;;;;;;5130147;28;20104;-69
2023/08/09 00:48:57;;;;;;;2.30;1.80;;;22.10;65.70;;;;;;5130370;28;20051;-70
2023/08/09 00:51:23;;;;;;;3.60;1.95;;;22.10;65.60;;;;;;5130172;28;20078;-69
2023/08/09 00:53:49;;;;;;;1.70;1.60;;;22.10;65.70;;;;;;5130069;28;20027;-69
2023/08/09 00:56:15;;;;;;;2.20;2.00;;;22.10;66.00;;;;;;5129963;28;20034;-69
2023/08/09 00:58:41;;;;;;;1.92;1.70;;;22.10;65.60;;;;;;5129873;28;20060;-69
2023/08/09 01:01:07;;;;;;;1.88;1.77;;;22.10;65.70;;;;;;5128362;28;20546;-70
2023/08/09 01:03:33;;;;;;;2.08;1.65;;;22.20;65.80;;;;;;5129975;28;20426;-70
2023/08/09 01:06:14;;;;;;;2.65;2.38;;;22.20;65.70;;;;;;5129879;28;20060;-70
2023/08/09 01:08:47;;;;;;;2.88;2.30;;;22.30;65.40;;;;;;5129564;28;20397;-70
2023/08/09 01:11:41;;;;;;;2.97;2.17;;;22.20;65.20;;;;;;5129929;28;20061;-69
2023/08/09 01:14:08;;;;;;;2.90;2.10;;;22.10;65.30;;;;;;5128876;28;20024;-70
2023/08/09 01:16:37;;;;;;;2.05;1.85;;;22.00;65.50;;;;;;5129734;27;20341;-70
2023/08/09 01:19:10;;;;;;;2.03;1.83;;;21.90;65.90;;;;;;5129691;28;20023;-69
2023/08/09 01:21:38;;;;;;;1.92;1.83;;;21.80;66.00;;;;;;5115277;28;20114;-70
2023/08/09 01:24:06;;;;;;;2.10;1.90;;;21.80;66.10;;;;;;5115496;28;20034;-69
2023/08/09 01:26:32;;;;;;;2.70;2.03;;;21.90;65.90;;;;;;5115817;28;20081;-69
2023/08/09 01:28:58;;;;;;;3.25;2.05;;;21.90;65.90;;;;;;5114311;28;20038;-69
2023/08/09 01:31:23;;;;;;;2.35;2.15;;;21.90;65.90;;;;;;5115816;28;20099;-69
2023/08/09 01:33:49;;;;;;;2.38;2.05;;;21.90;66.10;;;;;;5115650;28;20027;-69
2023/08/09 01:36:21;;;;;;;1.60;1.50;;;22.00;66.10;;;;;;5114352;28;20517;-69
2023/08/09 01:39:06;;;;;;;4.28;2.40;;;22.00;65.90;;;;;;5115332;28;20436;-69
2023/08/09 01:41:32;;;;;;;2.88;1.95;;;22.10;66.00;;;;;;5114456;28;20063;-69
2023/08/09 01:43:58;;;;;;;1.98;1.85;;;22.00;65.50;;;;;;5115741;28;20454;-70
2023/08/09 01:46:25;;;;;;;3.22;2.28;;;21.90;65.60;;;;;;5113889;28;20023;-70
2023/08/09 01:48:51;;;;;;;3.53;2.00;;;21.80;65.70;;;;;;5115102;28;20092;-68
2023/08/09 01:51:17;;;;;;;3.20;2.30;;;21.70;65.80;;;;;;5115502;28;20364;-69
2023/08/09 01:53:42;;;;;;;2.83;2.30;;;21.70;66.00;;;;;;5114597;28;20082;-70
2023/08/09 01:56:08;;;;;;;2.22;1.95;;;21.60;66.20;;;;;;5115355;28;20024;-70
2023/08/09 01:58:34;;;;;;;3.63;2.42;;;21.50;66.20;;;;;;5115178;28;20024;-70
2023/08/09 02:00:59;;;;;;;2.67;2.40;;;21.40;66.50;;;;;;5113631;28;20031;-69
2023/08/09 02:03:25;;;;;;;3.55;2.40;;;21.40;66.80;;;;;;5114884;28;20024;-69
2023/08/09 02:05:51;;;;;;;3.13;2.50;;;21.30;67.00;;;;;;5114984;28;20024;-70
2023/08/09 02:08:18;;;;;;;3.25;2.30;;;21.20;67.20;;;;;;5113227;28;20398;-70
2023/08/09 02:10:43;;;;;;;3.03;2.60;;;21.10;67.30;;;;;;5113496;28;20019;-70
2023/08/09 02:13:09;;;;;;;4.50;2.67;;;20.90;67.40;;;;;;5114759;28;20073;-70
2023/08/09 02:15:35;;;;;;;3.05;2.50;;;20.90;67.80;;;;;;5113522;28;20059;-70
2023/08/09 02:18:01;;;;;;;2.80;2.50;;;21.00;67.80;;;;;;5114962;28;20039;-70
2023/08/09 02:20:27;;;;;;;2.60;2.30;;;21.10;67.90;;;;;;5114479;28;20035;-69
2023/08/09 02:22:53;;;;;;;3.15;2.70;;;21.10;67.60;;;;;;5114901;28;20024;-69
2023/08/09 02:25:19;;;;;;;3.95;2.50;;;21.10;67.60;;;;;;5113561;28;20428;-69
2023/08/09 02:27:46;;;;;;;3.78;2.85;;;21.10;67.50;;;;;;5114775;28;20458;-69
2023/08/09 02:30:12;;;;;;;3.08;2.50;;;21.10;67.50;;;;;;5113263;28;20381;-70
2023/08/09 02:32:38;;;;;;;2.75;2.53;;;21.10;67.60;;;;;;5112069;28;20024;-70
2023/08/09 02:35:05;;;;;;;2.90;2.45;;;21.00;67.60;;;;;;5114142;28;20073;-70
2023/08/09 02:37:31;;;;;;;2.63;2.42;;;21.00;67.80;;;;;;5114432;28;20035;-69
2023/08/09 02:39:58;;;;;;;3.20;2.38;;;21.10;67.80;;;;;;5114396;28;20465;-69
2023/08/09 02:42:23;;;;;;;2.38;2.17;;;21.10;67.70;;;;;;5114236;28;20027;-69
2023/08/09 02:44:49;;;;;;;3.70;2.63;;;21.10;67.60;;;;;;5114137;28;20030;-70
2023/08/09 02:47:15;;;;;;;2.80;2.50;;;21.20;67.70;;;;;;5112639;28;20356;-70
2023/08/09 02:49:41;;;;;;;3.67;2.45;;;21.20;67.80;;;;;;5112534;28;20035;-70
2023/08/09 02:52:06;;;;;;;2.80;2.50;;;21.20;68.00;;;;;;5113949;28;20114;-70
2023/08/09 02:54:32;;;;;;;3.35;2.70;;;21.20;67.60;;;;;;5113897;28;20026;-69
2023/08/09 02:56:58;;;;;;;2.85;2.45;;;21.20;67.70;;;;;;5113961;28;20016;-69
2023/08/09 02:59:23;;;;;;;2.83;2.30;;;21.30;67.60;;;;;;5113916;28;20027;-69
2023/08/09 03:01:49;;;;;;;3.08;2.47;;;21.40;67.60;;;;;;5113681;28;20030;-70
2023/08/09 03:04:14;;;;;;;3.15;2.33;;;21.50;67.50;;;;;;5113937;28;20035;-70
2023/08/09 03:06:40;;;;;;;2.60;2.40;;;21.60;67.50;;;;;;5113999;28;20444;-69
2023/08/09 03:09:06;;;;;;;2.50;2.03;;;21.70;67.10;;;;;;5113172;28;20112;-69
2023/08/09 03:11:32;;;;;;;2.58;2.13;;;21.80;66.90;;;;;;5113667;28;20412;-69
2023/08/09 03:13:57;;;;;;;2.65;2.40;;;21.80;66.80;;;;;;5113509;28;20019;-70
2023/08/09 03:16:23;;;;;;;2.90;2.60;;;21.90;66.70;;;;;;5113588;28;20019;-69
2023/08/09 03:18:49;;;;;;;2.30;2.10;;;21.90;66.40;;;;;;5112172;28;20438;-70
2023/08/09 03:21:15;;;;;;;2.38;2.17;;;21.90;66.30;;;;;;5113588;28;20084;-70
2023/08/09 03:23:41;;;;;;;2.83;2.03;;;21.90;66.50;;;;;;5113430;28;20327;-70
2023/08/09 03:26:07;;;;;;;2.45;2.25;;;22.00;66.60;;;;;;5112168;28;20030;-70
2023/08/09 03:28:33;;;;;;;2.92;2.40;;;22.10;66.50;;;;;;5113502;28;20422;-70
2023/08/09 03:30:58;;;;;;;2.45;2.20;;;22.10;66.20;;;;;;5113558;28;20027;-70
2023/08/09 03:33:25;;;;;;;3.10;2.33;;;22.20;66.20;;;;;;5111865;28;20024;-70
2023/08/09 03:35:51;;;;;;;2.53;2.30;;;22.20;66.10;;;;;;5113372;28;20102;-70
2023/08/09 03:38:17;;;;;;;2.95;2.60;;;22.20;66.00;;;;;;5113449;28;20421;-69
2023/08/09 03:40:43;;;;;;;2.40;2.20;;;22.20;65.80;;;;;;5113158;28;20028;-69
2023/08/09 03:43:08;;;;;;;2.88;2.40;;;22.20;65.70;;;;;;5112850;28;20475;-68
2023/08/09 03:45:34;;;;;;;2.67;2.47;;;22.20;65.80;;;;;;5113311;28;20365;-70
2023/08/09 03:48:00;;;;;;;4.47;2.47;;;22.10;65.80;;;;;;5112983;28;20027;-69
2023/08/09 03:50:26;;;;;;;2.85;2.60;;;22.00;66.00;;;;;;5113024;28;20088;-69
2023/08/09 03:52:52;;;;;;;3.25;2.42;;;21.90;66.00;;;;;;5112587;28;20036;-70
2023/08/09 03:55:18;;;;;;;2.75;2.40;;;22.00;66.20;;;;;;5112955;28;20027;-70
2023/08/09 03:57:44;;;;;;;2.67;2.40;;;21.90;66.20;;;;;;5111633;28;20034;-69
2023/08/09 04:00:17;;;;;;;2.80;2.42;;;22.00;66.30;;;;;;5112639;28;20027;-69
2023/08/09 04:02:44;;;;;;;4.85;2.30;;;22.00;66.20;;;;;;5111581;28;20031;-69
2023/08/09 04:05:10;;;;;;;2.42;2.22;;;22.10;66.30;;;;;;5113133;28;20038;-69
2023/08/09 04:07:37;;;;;;;2.72;2.40;;;22.10;66.40;;;;;;5112694;28;20028;-70
2023/08/09 04:10:05;;;;;;;3.67;2.53;;;22.20;66.20;;;;;;5112717;28;20493;-70
2023/08/09 04:12:30;;;;;;;3.72;2.40;;;22.30;66.00;;;;;;5111484;28;20024;-70
2023/08/09 04:14:56;;;;;;;2.70;2.50;;;22.40;66.00;;;;;;5111329;28;20424;-70
2023/08/09 04:17:22;;;;;;;2.30;2.10;;;22.40;65.80;;;;;;5112903;28;20032;-70
2023/08/09 04:19:47;;;;;;;3.40;2.42;;;22.50;65.80;;;;;;5112715;28;20035;-70
2023/08/09 04:22:13;;;;;;;3.50;2.10;;;22.50;65.80;;;;;;5112908;28;20020;-69
2023/08/09 04:24:39;;;;;;;3.63;2.38;;;22.50;65.70;;;;;;5111107;28;20035;-69
2023/08/09 04:27:06;;;;;;;3.75;2.00;;;22.50;65.70;;;;;;5112553;28;20089;-70
2023/08/09 04:29:32;;;;;;;2.20;2.00;;;22.40;65.50;;;;;;5112437;28;20067;-70
2023/08/09 04:31:57;;;;;;;2.88;2.45;;;22.40;65.70;;;;;;5110963;28;20109;-70
2023/08/09 04:34:23;;;;;;;2.40;2.20;;;22.40;66.10;;;;;;5112848;28;20024;-70
2023/08/09 04:36:52;;;;;;;4.05;2.85;;;22.50;66.10;;;;;;5112632;28;20030;-70
2023/08/09 04:39:18;;;;;;;3.42;2.63;;;22.50;66.20;;;;;;5111150;28;20028;-68
2023/08/09 04:41:44;;;;;;;3.53;2.67;;;22.50;65.90;;;;;;5111922;28;20125;-70
2023/08/09 04:44:10;;;;;;;2.85;2.40;;;22.50;65.90;;;;;;5112206;28;20059;-70
2023/08/09 04:46:35;;;;;;;2.55;2.35;;;22.50;65.90;;;;;;5112383;28;20380;-70
2023/08/09 04:49:03;;;;;;;3.40;2.97;;;22.50;66.40;;;;;;5112289;28;20032;-70
2023/08/09 04:51:29;;;;;;;2.72;2.47;;;22.50;66.00;;;;;;5111076;28;20457;-70
2023/08/09 04:53:55;;;;;;;2.42;2.22;;;22.50;66.10;;;;;;5112437;28;20024;-71
2023/08/09 04:56:21;;;;;;;2.78;2.47;;;22.60;66.00;;;;;;5113821;28;20023;-70
2023/08/09 04:58:47;;;;;;;2.65;2.45;;;22.50;66.10;;;;;;5116294;28;20114;-70
2023/08/09 05:01:12;;;;;;;3.50;2.60;;;22.60;66.10;;;;;;5114883;28;20209;-71
2023/08/09 05:03:38;;;;;;;2.40;2.20;;;22.60;65.90;;;;;;5116303;28;20031;-70
2023/08/09 05:06:03;;;;;;;2.70;2.33;;;22.60;65.70;;;;;;5114590;28;20153;-70
2023/08/09 05:08:29;;;;;;;3.55;2.33;;;22.50;65.90;;;;;;5115727;28;20087;-70
2023/08/09 05:10:55;;;;;;;2.40;2.20;;;22.50;66.00;;;;;;5115975;28;20031;-70
2023/08/09 05:13:20;;;;;;;2.78;2.58;;;22.60;66.10;;;;;;5115841;28;20034;-70
2023/08/09 05:15:46;;;;;;;2.55;2.30;;;22.60;66.00;;;;;;5114608;28;20023;-70
2023/08/09 05:18:12;;;;;;;3.45;2.58;;;22.60;65.80;;;;;;5114822;27;20028;-73
2023/08/09 05:20:38;;;;;;;2.67;2.47;;;22.60;66.00;;;;;;5114563;28;20397;-76
2023/08/09 05:23:03;;;;;;;4.35;2.40;;;22.60;65.80;;;;;;5115207;28;20035;-74
2023/08/09 05:25:29;;;;;;;3.92;2.60;;;22.60;65.80;;;;;;5113946;28;20028;-75
2023/08/09 05:27:55;;;;;;;2.47;2.20;;;22.60;65.90;;;;;;5113328;28;20110;-75
2023/08/09 05:30:22;;;;;;;2.30;1.92;;;22.70;66.00;;;;;;5113452;28;20074;-74
2023/08/09 05:32:48;;;;;;;2.80;1.95;;;22.80;65.90;;;;;;5114692;28;20047;-71
2023/08/09 05:35:14;;;;;;;2.15;2.00;;;23.00;65.70;;;;;;5114664;28;20030;-75
2023/08/09 05:37:40;;;;;;;1.98;1.77;;;23.10;65.40;;;;;;5114413;28;20024;-73
2023/08/09 05:40:12;;;;;;;1.95;1.73;;;23.20;65.40;;;;;;5112828;28;20129;-74
2023/08/09 05:42:38;;;;;;;1.83;1.73;;;23.30;65.10;;;;;;5114887;28;20020;-73
2023/08/09 05:45:04;;;;;;;2.38;1.70;;;23.40;65.00;;;;;;5112747;28;20027;-75
2023/08/09 05:47:31;;;;;;;2.75;1.67;;;23.50;64.90;;;;;;5114969;28;20028;-73
2023/08/09 05:49:58;;;;;;;1.88;1.73;;;23.60;64.80;;;;;;5112051;28;20036;-74
2023/08/09 05:52:23;;;;;;;1.73;1.63;;;23.70;64.60;;;;;;5114752;28;20134;-74
2023/08/09 05:54:49;;;;;;;5.05;1.75;;;23.70;64.50;;;;;;5114352;28;20068;-74
2023/08/09 05:57:15;;;;;;;2.30;1.70;;;23.80;64.30;;;;;;5114688;28;20103;-74
2023/08/09 05:59:40;;;;;;;2.22;1.88;;;23.90;64.20;;;;;;5114719;28;20085;-74
2023/08/09 06:02:06;;;;;;;1.73;1.63;;;23.90;64.00;;;;;;5114088;28;20473;-73
2023/08/09 06:04:33;;;;;;;1.90;1.80;;;24.00;63.90;;;;;;5112961;28;20049;-74
2023/08/09 06:06:59;;;;;;;2.28;1.73;;;24.10;63.80;;;;;;5114151;28;20046;-74
2023/08/09 06:09:24;;;;;;;1.73;1.63;;;24.20;63.70;;;;;;5112135;28;20055;-73
2023/08/09 06:11:50;;;;;;;2.30;1.90;;;24.20;63.60;;;;;;5113854;28;20035;-75
2023/08/09 06:14:16;;;;;;;1.90;1.60;;;24.20;63.50;;;;;;5114343;28;20031;-74
2023/08/09 06:16:45;;;;;;;1.73;1.63;;;24.30;63.40;;;;;;5115993;27;20027;-71
2023/08/09 06:19:11;;;;;;;2.15;1.80;;;24.30;63.30;;;;;;5134733;27;20027;-72
2023/08/09 06:21:38;;;;;;;2.00;1.83;;;24.40;63.30;;;;;;5134048;27;20030;-74
2023/08/09 06:24:05;;;;;;;2.47;1.80;;;24.40;63.10;;;;;;5151394;27;20076;-71
2023/08/09 06:26:32;;;;;;;2.42;2.22;;;24.40;63.00;;;;;;5140042;27;20138;-72
2023/08/09 06:28:58;;;;;;;4.05;2.70;;;24.50;62.80;;;;;;5134468;27;20464;-74
2023/08/09 06:31:24;;;;;;;2.92;2.25;;;24.40;62.50;;;;;;5133973;27;20030;-74
2023/08/09 06:33:50;;;;;;;2.28;2.08;;;24.30;62.20;;;;;;5133711;27;20027;-75
2023/08/09 06:36:15;;;;;;;2.05;1.90;;;24.20;61.90;;;;;;5134200;27;20027;-73
2023/08/09 06:38:41;;;;;;;2.42;2.00;;;24.10;61.90;;;;;;5133625;27;20042;-73
2023/08/09 06:41:06;;;;;;;1.98;1.63;;;24.00;62.00;;;;;;5134138;27;20023;-76
2023/08/09 06:43:32;;;;;;;2.00;1.90;;;23.80;62.00;;;;;;5133904;27;20056;-73
2023/08/09 06:46:00;;;;;;;3.10;1.85;;;23.70;62.00;;;;;;5133477;27;20038;-73
2023/08/09 06:48:29;;;;;;;2.17;2.08;;;23.60;62.00;;;;;;5133889;27;20050;-72
2023/08/09 06:50:57;;;;;;;1.90;1.80;;;23.50;62.10;;;;;;5135118;27;20035;-72
2023/08/09 06:53:23;;;;;;;2.03;1.92;;;23.40;62.10;;;;;;5134135;27;20034;-74
2023/08/09 06:55:49;;;;;;;2.58;2.10;;;23.40;62.10;;;;;;5134636;27;20110;-72
2023/08/09 06:58:14;;;;;;;2.00;1.90;;;23.30;62.20;;;;;;5149354;27;20232;-72
2023/08/09 07:00:40;;;;;;;2.20;2.00;;;23.30;62.40;;;;;;5149367;27;20028;-72
2023/08/09 07:03:06;;;;;;;2.42;2.10;;;23.20;62.40;;;;;;5133372;27;20034;-72
2023/08/09 07:05:31;;;;;;;2.00;1.90;;;23.20;62.40;;;;;;5133782;27;20103;-73
2023/08/09 07:07:57;;;;;;;1.95;1.83;;;23.20;62.40;;;;;;5121224;27;20047;-72
2023/08/09 07:10:26;;;;;;;2.33;2.13;;;23.20;62.20;;;;;;5101567;28;20031;-72
2023/08/09 07:12:52;;;;;;;2.38;2.17;;;23.10;61.90;;;;;;5091002;28;20024;-73
2023/08/09 07:15:18;;;;;;;2.50;2.00;;;23.10;61.80;;;;;;5092623;28;20024;-72
2023/08/09 07:17:44;;;;;;;2.00;1.90;;;23.10;61.70;;;;;;5112689;27;20027;-74
2023/08/09 07:20:11;;;;;;;2.60;2.25;;;23.00;62.20;;;;;;5149332;27;20457;-73
2023/08/09 07:22:37;;;;;;;2.45;2.17;;;23.10;61.50;;;;;;5132983;27;20110;-73
2023/08/09 07:25:03;;;;;;;2.88;1.92;;;23.00;61.50;;;;;;5119719;27;20416;-75
2023/08/09 07:27:29;;;;;;;2.00;1.80;;;23.00;61.60;;;;;;5112852;28;20121;-72
2023/08/09 07:29:55;;;;;;;2.08;1.90;;;23.10;61.60;;;;;;5112445;28;20040;-71
2023/08/09 07:32:20;;;;;;;1.98;1.88;;;23.10;61.40;;;;;;5112921;28;20016;-71
2023/08/09 07:34:46;;;;;;;2.83;2.03;;;23.10;61.10;;;;;;5110402;28;20077;-72
2023/08/09 07:37:11;;;;;;;1.85;1.70;;;23.10;60.80;;;;;;5112539;28;20517;-73
2023/08/09 07:39:37;;;;;;;2.58;1.92;;;23.10;60.40;;;;;;5112842;28;20106;-71
2023/08/09 07:42:03;;;;;;;2.30;2.10;;;23.10;60.50;;;;;;5112717;28;20030;-71
2023/08/09 07:44:28;;;;;;;3.88;1.92;;;23.10;60.30;;;;;;5110840;28;20070;-71
2023/08/09 07:46:54;;;;;;;2.05;1.83;;;23.20;60.30;;;;;;5111973;28;20039;-71
2023/08/09 07:49:20;;;;;;;2.33;1.90;;;23.10;60.30;;;;;;5110904;28;20027;-72
2023/08/09 07:51:45;;;;;;;1.92;1.83;;;23.10;60.20;;;;;;5112172;28;20349;-71
2023/08/09 07:54:11;;;;;;;3.17;2.00;;;23.20;60.10;;;;;;5112114;28;20381;-69
2023/08/09 07:56:37;;;;;;;3.45;2.22;;;23.10;60.00;;;;;;5110494;28;20020;-74
2023/08/09 07:59:02;;;;;;;2.20;1.75;;;23.20;60.00;;;;;;5110989;28;20067;-71
2023/08/09 08:01:28;;;;;;;2.03;1.70;;;23.20;59.90;;;;;;5112398;28;20024;-72
2023/08/09 08:03:54;;;;;;;2.20;1.73;;;23.20;59.30;;;;;;5111794;28;20073;-72
2023/08/09 08:06:20;;;;;;;1.90;1.70;;;23.20;59.00;;;;;;5111773;28;20122;-70
2023/08/09 08:08:46;;;;;;;2.53;1.88;;;23.30;59.10;;;;;;5110610;28;20084;-71
2023/08/09 08:11:11;;;;;;;1.92;1.83;;;23.30;59.10;;;;;;5112107;28;20556;-71
2023/08/09 08:13:39;;;;;;;1.73;1.63;;;23.30;59.20;;;;;;5111183;28;20061;-71
2023/08/09 08:16:05;;;;;;;2.08;1.88;;;23.40;58.70;;;;;;5111723;28;20116;-71
2023/08/09 08:18:31;;;;;;;2.50;1.98;;;23.50;58.50;;;;;;5129597;28;20031;-72
2023/08/09 08:20:59;;;;;;;2.10;1.90;;;23.50;58.40;;;;;;5133226;27;20485;-73
2023/08/09 08:23:25;;;;;;;2.92;2.00;;;23.50;58.10;;;;;;5133931;28;20031;-72
2023/08/09 08:25:51;;;;;;;2.10;1.90;;;23.50;58.10;;;;;;5149716;27;20453;-72
2023/08/09 08:28:17;;;;;;;2.30;2.10;;;23.60;57.80;;;;;;5133528;28;20042;-72
2023/08/09 08:30:42;;;;;;;1.95;1.60;;;23.70;57.80;;;;;;5135835;27;20023;-72
2023/08/09 08:33:08;;;;;;;1.92;1.80;;;23.70;57.50;;;;;;5137514;27;20025;-72
2023/08/09 08:35:36;;;;;;;2.13;1.75;;;23.70;56.90;;;;;;5137620;27;20027;-72
2023/08/09 08:38:03;;;;;;;1.95;1.70;;;23.70;56.90;;;;;;5153628;27;20019;-72
2023/08/09 08:40:31;;;;;;;3.08;2.08;;;23.70;56.50;;;;;;5137495;27;20062;-71
2023/08/09 08:42:59;;;;;;;2.10;1.58;;;23.70;56.30;;;;;;5153350;27;20097;-72
2023/08/09 08:45:24;;;;;;;1.90;1.70;;;23.80;56.40;;;;;;5153126;27;20051;-73
2023/08/09 08:47:50;;;;;;;1.73;1.50;;;23.90;56.30;;;;;;5137099;27;20058;-73
2023/08/09 08:50:17;;;;;;;2.05;1.70;;;23.90;56.00;;;;;;5137408;27;20066;-73
2023/08/09 08:52:47;;;;;;;2.20;1.70;;;23.90;55.90;;;;;;5153678;27;20342;-74
2023/08/09 08:55:14;;;;;;;2.35;1.80;;;24.00;55.80;;;;;;5153401;27;20023;-71
2023/08/09 08:57:40;;;;;;;2.00;1.67;;;24.00;55.70;;;;;;5137115;27;20023;-72
2023/08/09 09:00:08;;;;;;;2.22;2.00;;;24.00;55.80;;;;;;5137037;27;20465;-72
2023/08/09 09:02:38;;;;;;;1.95;1.38;;;24.00;55.50;;;;;;5152663;27;20035;-72
2023/08/09 09:05:06;;;;;;;1.52;1.40;;;24.10;55.50;;;;;;5137207;27;20471;-72
2023/08/09 09:07:33;;;;;;;1.35;1.25;;;24.10;55.40;;;;;;5137021;27;20026;-73
2023/08/09 09:10:03;;;;;;;2.88;1.90;;;24.20;55.10;;;;;;5137280;27;20047;-72
2023/08/09 09:12:29;;;;;;;1.88;1.65;;;24.20;55.30;;;;;;5137104;27;20080;-72
2023/08/09 09:14:55;;;;;;;1.60;1.50;;;24.20;55.30;;;;;;5136763;27;20379;-72
2023/08/09 09:17:22;;;;;;;1.65;1.50;;;24.20;55.20;;;;;;5136893;27;20457;-73
2023/08/09 09:19:48;;;;;;;1.70;1.60;;;24.30;55.20;;;;;;5152989;27;20035;-72
2023/08/09 09:22:28;;;;;;;1.63;1.52;;;24.30;55.20;;;;;;5136799;27;20027;-72
2023/08/09 09:24:59;;;;;;;2.72;1.60;;;24.30;54.70;;;;;;5152502;27;20357;-73
2023/08/09 09:27:30;;;;;;;2.30;1.60;;;24.40;55.10;;;;;;5152602;27;20031;-73
2023/08/09 09:30:12;;;;;;;2.42;1.48;;;24.40;55.00;;;;;;5136837;27;20035;-73
2023/08/09 09:32:40;;;;;;;2.03;1.73;;;24.40;55.00;;;;;;5152797;27;20019;-72
2023/08/09 09:35:08;;;;;;;1.55;1.40;;;24.40;55.00;;;;;;5135178;27;20034;-73
2023/08/09 09:37:35;;;;;;;1.38;1.27;;;24.50;54.90;;;;;;5136342;27;20479;-73
2023/08/09 09:40:00;;;;;;;1.60;1.50;;;24.50;54.60;;;;;;5136551;27;20038;-72
2023/08/09 09:42:34;;;;;;;1.92;1.45;;;24.40;54.60;;;;;;5151488;27;20023;-72
2023/08/09 09:45:07;;;;;;;1.60;1.50;;;24.50;54.30;;;;;;5152620;27;20023;-72
2023/08/09 09:47:37;;;;;;;3.35;1.95;;;24.50;53.60;;;;;;5136427;27;20097;-71
2023/08/09 09:50:07;;;;;;;1.67;1.45;;;24.50;54.30;;;;;;5136044;27;20035;-72
2023/08/09 09:52:35;;;;;;;2.10;1.65;;;24.50;54.30;;;;;;5151735;27;20035;-72
2023/08/09 09:55:01;;;;;;;1.50;1.40;;;24.50;54.40;;;;;;5136129;27;20030;-72
2023/08/09 09:57:27;;;;;;;1.65;1.50;;;24.50;54.40;;;;;;5151358;27;20381;-71
2023/08/09 09:59:58;;;;;;;2.05;1.67;;;24.60;54.30;;;;;;5136097;27;20034;-71
2023/08/09 10:02:48;;;;;;;1.60;1.38;;;24.60;54.10;;;;;;5152183;27;20026;-72
2023/08/09 10:05:21;;;;;;;1.95;1.42;;;24.60;54.10;;;;;;5136439;27;20027;-71
2023/08/09 10:07:48;;;;;;;1.80;1.50;;;24.60;53.90;;;;;;5151900;27;20031;-71
2023/08/09 10:10:15;;;;;;;1.63;1.52;;;24.60;53.90;;;;;;5151919;27;20038;-71
2023/08/09 10:12:44;;;;;;;1.60;1.50;;;24.70;53.90;;;;;;5151683;27;20019;-72
2023/08/09 10:15:14;;;;;;;1.92;1.50;;;24.70;53.80;;;;;;5135557;27;20401;-72
2023/08/09 10:17:41;;;;;;;1.35;1.25;;;24.70;53.80;;;;;;5135642;27;20027;-72
2023/08/09 10:20:10;;;;;;;1.88;1.58;;;24.70;53.60;;;;;;5134661;27;20038;-72
2023/08/09 10:22:36;;;;;;;1.88;1.60;;;24.80;53.60;;;;;;5135549;27;20055;-72
2023/08/09 10:25:02;;;;;;;2.28;1.40;;;24.80;53.90;;;;;;5135599;27;20020;-72
2023/08/09 10:27:51;;;;;;;2.55;1.52;;;24.80;53.20;;;;;;5136014;27;20414;-71
2023/08/09 10:30:28;;;;;;;1.70;1.60;;;24.90;52.60;;;;;;5135461;27;20077;-72
2023/08/09 10:32:55;;;;;;;3.33;1.70;;;24.90;51.80;;;;;;5135571;27;20054;-73
2023/08/09 10:35:40;;;;;;;1.55;1.42;;;24.90;52.50;;;;;;5135418;27;20030;-72
2023/08/09 10:38:06;;;;;;;1.60;1.50;;;24.90;52.60;;;;;;5135263;27;20376;-72
2023/08/09 10:40:35;;;;;;;1.67;1.58;;;24.90;52.40;;;;;;5135511;27;20472;-72
2023/08/09 10:43:01;;;;;;;1.45;1.35;;;24.90;52.20;;;;;;5151269;27;20047;-71
2023/08/09 10:45:30;;;;;;;1.80;1.33;;;24.90;52.10;;;;;;5135331;27;20062;-72
2023/08/09 10:48:16;;;;;;;1.50;1.38;;;25.00;52.20;;;;;;5151438;27;20033;-72
2023/08/09 10:50:42;;;;;;;1.75;1.45;;;25.00;51.00;;;;;;5135137;27;20038;-71
2023/08/09 10:53:08;;;;;;;1.52;1.42;;;25.00;52.00;;;;;;5134421;27;20027;-71
2023/08/09 10:55:34;;;;;;;1.40;1.30;;;25.00;51.60;;;;;;5134866;27;20034;-71
2023/08/09 10:58:00;;;;;;;1.85;1.60;;;25.00;51.40;;;;;;5134628;27;20122;-71
2023/08/09 11:00:28;;;;;;;1.55;1.45;;;25.10;51.40;;;;;;5151715;27;20049;-71
2023/08/09 11:02:59;;;;;;;1.95;1.80;;;25.10;51.20;;;;;;5151587;27;20055;-71
2023/08/09 11:05:27;;;;;;;1.73;1.08;;;25.10;50.10;;;;;;5135262;27;20095;-71
2023/08/09 11:07:55;;;;;;;1.60;1.50;;;25.10;50.50;;;;;;5134866;27;20461;-70
2023/08/09 11:10:35;;;;;;;1.63;1.52;;;25.10;50.20;;;;;;5150981;27;20031;-71
2023/08/09 11:13:14;;;;;;;1.90;1.65;;;25.10;48.80;;;;;;5134953;27;20068;-72
2023/08/09 11:15:47;;;;;;;2.15;1.70;;;25.10;50.00;;;;;;5150838;27;20027;-71
2023/08/09 11:18:14;;;;;;;1.40;1.30;;;25.10;49.80;;;;;;5150109;27;20023;-72
2023/08/09 11:20:39;;;;;;;1.50;1.40;;;25.20;49.90;;;;;;5150099;27;20031;-72
2023/08/09 11:23:05;;;;;;;1.75;1.48;;;25.20;49.70;;;;;;5134458;27;20426;-72
2023/08/09 11:25:33;;;;;;;1.50;1.40;;;25.30;49.70;;;;;;5134841;27;20387;-72
2023/08/09 11:28:01;;;;;;;1.67;1.42;;;25.30;50.30;;;;;;5150454;27;20370;-71
2023/08/09 11:30:31;;;;;;;1.45;1.35;;;25.40;49.60;;;;;;5134766;27;20066;-72
2023/08/09 11:32:57;;;;;;;2.20;1.33;;;25.40;49.30;;;;;;5134541;27;20047;-72
2023/08/09 11:35:31;;;;;;;2.05;1.80;;;25.40;49.30;;;;;;5134685;27;20023;-72
2023/08/09 11:37:56;;;;;;;2.00;1.80;;;25.50;49.20;;;;;;5150247;27;20027;-72
2023/08/09 11:40:23;;;;;;;2.05;1.90;;;25.50;49.30;;;;;;5134413;27;20061;-71
2023/08/09 11:42:55;;;;;;;2.78;1.80;;;25.50;49.20;;;;;;5150425;27;20024;-71
2023/08/09 11:45:21;;;;;;;2.08;1.67;;;25.60;48.10;;;;;;5134703;27;20106;-72
2023/08/09 11:47:54;;;;;;;1.77;1.67;;;25.50;48.70;;;;;;5134316;27;20480;-71
2023/08/09 11:50:24;;;;;;;1.75;1.65;;;25.50;48.60;;;;;;5134303;27;20031;-71
2023/08/09 11:52:55;;;;;;;1.48;1.38;;;25.60;48.90;;;;;;5132884;27;20019;-71
2023/08/09 11:55:24;;;;;;;1.80;1.70;;;25.60;49.00;;;;;;5150128;27;20019;-72
2023/08/09 11:57:50;;;;;;;1.95;1.70;;;25.70;49.00;;;;;;5133885;27;20080;-71
2023/08/09 12:00:17;;;;;;;1.50;1.40;;;25.60;48.80;;;;;;5133971;27;20031;-72
2023/08/09 12:02:43;;;;;;;1.40;1.30;;;25.60;48.70;;;;;;5134458;27;20106;-71
2023/08/09 12:05:14;;;;;;;1.80;1.70;;;25.70;48.70;;;;;;5134010;27;20066;-72
2023/08/09 12:07:40;;;;;;;1.65;1.40;;;25.70;48.70;;;;;;5133864;27;20027;-72
2023/08/09 12:10:10;;;;;;;1.60;1.50;;;25.70;48.50;;;;;;5150048;27;20080;-71
2023/08/09 12:12:38;;;;;;;1.88;1.77;;;25.70;48.60;;;;;;5150070;27;20230;-71
2023/08/09 12:15:04;;;;;;;1.40;1.30;;;25.70;48.60;;;;;;5149912;27;20056;-72
2023/08/09 12:17:30;;;;;;;1.83;1.60;;;25.80;48.60;;;;;;5133912;27;20510;-72
2023/08/09 12:20:00;;;;;;;1.73;1.63;;;25.80;48.50;;;;;;5134090;28;20474;-72
2023/08/09 12:22:27;;;;;;;1.67;1.52;;;25.80;48.30;;;;;;5133798;27;20027;-71
2023/08/09 12:24:54;;;;;;;1.85;1.58;;;25.80;48.50;;;;;;5134024;28;20039;-71
2023/08/09 12:27:23;;;;;;;1.50;1.40;;;25.90;48.40;;;;;;5134223;28;20027;-73
2023/08/09 12:29:49;;;;;;;1.95;1.80;;;25.90;48.30;;;;;;5133959;28;20088;-72
2023/08/09 12:32:16;;;;;;;3.42;1.60;;;26.00;48.20;;;;;;5149530;27;20436;-73
2023/08/09 12:34:42;;;;;;;1.75;1.55;;;26.00;48.00;;;;;;5133776;28;20023;-71
2023/08/09 12:37:08;;;;;;;1.40;1.30;;;26.10;47.90;;;;;;5133636;27;20503;-73
2023/08/09 12:39:34;;;;;;;1.40;1.30;;;26.10;47.60;;;;;;5133535;27;20479;-72
2023/08/09 12:42:01;;;;;;;1.40;1.30;;;26.10;48.30;;;;;;5149813;27;20023;-71
2023/08/09 12:44:27;;;;;;;1.65;1.55;;;26.20;47.60;;;;;;5149481;27;20167;-72
2023/08/09 12:46:53;;;;;;;1.25;1.15;;;26.20;47.30;;;;;;5133724;27;20027;-72
2023/08/09 12:49:20;;;;;;;1.40;1.25;;;26.30;47.20;;;;;;5149189;27;20076;-72
2023/08/09 12:51:46;;;;;;;1.30;1.20;;;26.30;47.10;;;;;;5133457;27;20039;-72
2023/08/09 12:54:12;;;;;;;1.50;1.15;;;26.40;47.10;;;;;;5149470;27;20085;-72
2023/08/09 12:56:38;;;;;;;1.20;1.10;;;26.50;47.10;;;;;;5133450;28;20019;-72